Time;durP1;ratioP1;P1;durP2;ratioP2;P2;SDS_P1;SDS_P2;PMS_P1;PMS_P2;Temp;Humidity;BMP_temperature;BMP_pressure;BME280_temperature;BME280_humidity;BME280_pressure;Samples;Min_cycle;Max_cycle;Signal;HPM_P1;HPM_P2
2022/05/10 00:00:21;;;;;;;3.83;2.28;;;14.10;99.90;;;;;;5031149;28;20045;-65
2022/05/10 00:02:53;;;;;;;5.85;2.83;;;14.10;99.90;;;;;;5032290;28;20374;-67
2022/05/10 00:05:32;;;;;;;3.97;2.60;;;14.00;99.90;;;;;;5032342;28;20050;-67
2022/05/10 00:08:03;;;;;;;6.60;2.85;;;14.00;99.90;;;;;;5030354;28;20045;-64
2022/05/10 00:10:31;;;;;;;4.35;2.90;;;14.00;99.90;;;;;;5015159;28;20050;-65
2022/05/10 00:12:59;;;;;;;3.45;2.33;;;13.90;99.90;;;;;;5031094;28;20042;-63
2022/05/10 00:15:27;;;;;;;3.45;2.25;;;13.90;99.90;;;;;;5031911;28;20052;-66
2022/05/10 00:17:55;;;;;;;4.85;2.67;;;13.90;99.90;;;;;;5030543;28;20413;-65
2022/05/10 00:20:25;;;;;;;5.13;2.70;;;13.90;99.90;;;;;;5030994;28;20052;-60
2022/05/10 00:22:53;;;;;;;3.42;2.33;;;13.80;99.90;;;;;;5030964;28;20072;-62
2022/05/10 00:25:25;;;;;;;3.85;2.15;;;13.80;99.90;;;;;;5027679;28;20053;-61
2022/05/10 00:27:53;;;;;;;8.95;2.88;;;13.80;99.90;;;;;;5030071;28;20046;-61
2022/05/10 00:30:21;;;;;;;5.45;2.50;;;13.80;99.90;;;;;;5013647;28;20371;-61
2022/05/10 00:32:49;;;;;;;7.95;2.50;;;13.80;99.90;;;;;;5031013;28;20601;-61
2022/05/10 00:35:28;;;;;;;6.18;2.70;;;13.80;99.90;;;;;;5031010;28;20052;-61
2022/05/10 00:38:00;;;;;;;5.63;2.47;;;13.80;99.90;;;;;;5031957;28;20441;-61
2022/05/10 00:40:31;;;;;;;5.32;2.80;;;13.80;99.90;;;;;;5015070;28;20072;-61
2022/05/10 00:43:02;;;;;;;4.72;2.33;;;13.80;99.90;;;;;;5030808;28;20053;-61
2022/05/10 00:46:00;;;;;;;5.47;2.63;;;13.80;99.90;;;;;;5030976;28;20058;-61
2022/05/10 00:48:31;;;;;;;6.45;2.63;;;13.70;99.90;;;;;;5027850;28;20045;-61
2022/05/10 00:51:14;;;;;;;2.75;2.05;;;13.70;99.90;;;;;;5030467;28;20049;-61
2022/05/10 00:53:49;;;;;;;4.10;2.28;;;13.60;99.90;;;;;;5025669;28;20049;-61
2022/05/10 00:56:24;;;;;;;7.28;2.70;;;13.60;99.90;;;;;;5021370;28;20057;-61
2022/05/10 00:59:11;;;;;;;4.97;2.30;;;13.60;99.90;;;;;;5033531;28;20052;-60
2022/05/10 01:01:43;;;;;;;3.88;2.28;;;13.60;99.90;;;;;;5029312;28;20133;-61
2022/05/10 01:04:17;;;;;;;4.43;2.42;;;13.60;99.90;;;;;;5027601;28;20397;-61
2022/05/10 01:06:54;;;;;;;6.97;2.42;;;13.60;99.90;;;;;;5026580;28;20048;-61
2022/05/10 01:09:39;;;;;;;5.55;2.92;;;13.60;99.90;;;;;;5026436;28;20413;-61
2022/05/10 01:12:17;;;;;;;6.25;2.70;;;13.60;99.90;;;;;;5030190;28;20048;-60
2022/05/10 01:15:05;;;;;;;2.63;2.17;;;13.60;99.90;;;;;;5030088;28;20065;-60
2022/05/10 01:17:33;;;;;;;5.78;2.30;;;13.60;99.90;;;;;;5026604;28;20053;-63
2022/05/10 01:20:03;;;;;;;8.60;2.53;;;13.60;99.90;;;;;;5030495;28;20136;-65
2022/05/10 01:23:03;;;;;;;13.40;2.78;;;13.60;99.90;;;;;;5027838;28;20049;-63
2022/05/10 01:25:59;;;;;;;5.25;2.83;;;13.60;99.90;;;;;;5027665;28;20052;-61
2022/05/10 01:28:36;;;;;;;5.38;2.45;;;13.60;99.90;;;;;;5031195;28;20045;-63
2022/05/10 01:31:10;;;;;;;5.20;2.08;;;13.60;99.90;;;;;;5024644;28;20041;-65
2022/05/10 01:33:47;;;;;;;8.15;2.63;;;13.70;99.90;;;;;;5026371;28;20064;-66
2022/05/10 01:36:37;;;;;;;4.47;1.83;;;13.60;99.90;;;;;;5030628;28;20080;-66
2022/05/10 01:39:28;;;;;;;4.60;2.03;;;13.60;99.90;;;;;;5032553;28;20481;-66
2022/05/10 01:42:05;;;;;;;3.63;1.83;;;13.60;99.90;;;;;;5030949;28;20508;-62
2022/05/10 01:45:01;;;;;;;6.07;2.10;;;13.60;99.90;;;;;;5032022;28;20037;-67
2022/05/10 01:47:37;;;;;;;6.00;1.67;;;13.50;99.90;;;;;;5020935;28;20058;-65
2022/05/10 01:50:18;;;;;;;6.55;2.10;;;13.50;99.90;;;;;;5031737;28;20517;-66
2022/05/10 01:53:20;;;;;;;4.90;2.10;;;13.50;99.90;;;;;;5031704;28;20038;-64
2022/05/10 01:55:52;;;;;;;5.13;2.25;;;13.50;99.90;;;;;;5031786;28;21039;-65
2022/05/10 01:58:28;;;;;;;3.30;1.85;;;13.50;99.90;;;;;;5030524;28;20037;-65
2022/05/10 02:01:03;;;;;;;10.05;2.08;;;13.50;99.90;;;;;;5030468;28;20045;-64
2022/05/10 02:03:39;;;;;;;4.53;1.80;;;13.40;99.90;;;;;;5030986;28;20048;-67
2022/05/10 02:06:22;;;;;;;5.85;1.80;;;13.40;99.90;;;;;;5029646;28;20554;-66
2022/05/10 02:08:53;;;;;;;2.80;1.58;;;13.40;99.90;;;;;;5032134;28;20053;-66
2022/05/10 02:11:20;;;;;;;5.63;1.85;;;13.30;99.90;;;;;;5028901;28;20057;-67
2022/05/10 02:14:08;;;;;;;4.72;1.75;;;13.30;99.90;;;;;;5031347;28;20516;-66
2022/05/10 02:16:46;;;;;;;7.88;2.00;;;13.30;99.90;;;;;;5026078;28;20045;-66
2022/05/10 02:19:20;;;;;;;3.50;1.60;;;13.30;99.90;;;;;;5031911;28;20044;-67
2022/05/10 02:21:54;;;;;;;2.55;1.63;;;13.30;99.90;;;;;;5030653;28;20057;-67
2022/05/10 02:24:40;;;;;;;2.78;1.77;;;13.30;99.90;;;;;;5029890;28;20052;-66
2022/05/10 02:27:17;;;;;;;3.85;1.88;;;13.20;99.90;;;;;;5025019;28;20048;-65
2022/05/10 02:29:47;;;;;;;5.18;1.70;;;13.20;99.90;;;;;;5030785;28;20057;-67
2022/05/10 02:35:11;;;;;;;5.57;1.90;;;13.10;99.90;;;;;;5031458;28;20405;-66
2022/05/10 02:37:40;;;;;;;5.13;1.75;;;13.10;99.90;;;;;;5033230;28;20044;-65
2022/05/10 02:40:09;;;;;;;5.70;2.35;;;13.00;99.90;;;;;;5045622;28;20522;-65
2022/05/10 02:42:38;;;;;;;6.40;2.00;;;13.00;99.90;;;;;;5030223;28;20049;-67
2022/05/10 02:45:07;;;;;;;4.10;1.73;;;13.00;99.90;;;;;;5030455;28;20057;-62
2022/05/10 02:47:36;;;;;;;3.47;1.90;;;13.00;99.90;;;;;;5031056;28;20054;-64
2022/05/10 02:50:14;;;;;;;3.00;1.53;;;13.00;99.90;;;;;;5029832;28;20397;-62
2022/05/10 02:52:42;;;;;;;6.50;1.90;;;13.10;99.90;;;;;;5030921;28;20060;-60
2022/05/10 02:55:17;;;;;;;3.70;1.45;;;13.10;99.90;;;;;;5031030;28;20057;-60
2022/05/10 02:57:48;;;;;;;3.50;1.70;;;13.10;99.90;;;;;;5030973;28;20050;-60
2022/05/10 03:00:17;;;;;;;2.63;1.48;;;13.10;99.90;;;;;;5029452;28;20049;-60
2022/05/10 03:02:48;;;;;;;2.67;1.67;;;13.10;99.90;;;;;;5031046;28;20048;-61
2022/05/10 03:05:16;;;;;;;6.88;2.15;;;13.00;99.90;;;;;;5031109;28;20064;-62
2022/05/10 03:07:44;;;;;;;5.22;2.13;;;13.00;99.90;;;;;;5026930;28;20053;-60
2022/05/10 03:10:12;;;;;;;2.55;1.85;;;13.00;99.90;;;;;;5029259;28;20050;-63
2022/05/10 03:12:39;;;;;;;3.08;1.73;;;12.90;99.90;;;;;;5030390;28;20622;-64
2022/05/10 03:15:07;;;;;;;2.88;1.63;;;12.90;99.90;;;;;;5029683;28;20389;-63
2022/05/10 03:17:35;;;;;;;3.47;2.03;;;12.90;99.90;;;;;;5028093;28;20457;-66
2022/05/10 03:20:03;;;;;;;4.28;1.98;;;12.90;99.90;;;;;;5031095;28;20041;-65
2022/05/10 03:22:32;;;;;;;2.78;1.70;;;12.90;99.90;;;;;;5029306;28;20493;-65
2022/05/10 03:24:59;;;;;;;5.85;2.00;;;12.90;99.90;;;;;;5030514;28;20049;-66
2022/05/10 03:27:29;;;;;;;3.50;2.17;;;12.90;99.90;;;;;;5029396;28;20050;-65
2022/05/10 03:29:56;;;;;;;4.20;1.75;;;12.90;99.90;;;;;;5030533;28;20044;-65
2022/05/10 03:32:24;;;;;;;6.03;1.88;;;12.90;99.90;;;;;;5029569;28;20503;-65
2022/05/10 03:34:58;;;;;;;3.22;1.80;;;13.00;99.90;;;;;;5029350;28;20398;-66
2022/05/10 03:37:30;;;;;;;3.53;2.10;;;12.90;99.90;;;;;;5029161;28;20045;-62
2022/05/10 03:39:59;;;;;;;4.55;2.30;;;12.90;99.90;;;;;;5029957;28;20041;-62
2022/05/10 03:42:27;;;;;;;6.80;2.38;;;12.90;99.90;;;;;;5030304;28;20405;-66
2022/05/10 03:44:55;;;;;;;4.85;1.83;;;13.00;99.90;;;;;;5031202;28;20052;-67
2022/05/10 03:47:26;;;;;;;5.82;1.95;;;13.00;99.90;;;;;;5028968;28;20056;-66
2022/05/10 03:49:56;;;;;;;2.72;2.05;;;13.00;99.90;;;;;;5029172;28;20037;-66
2022/05/10 03:52:24;;;;;;;8.18;2.00;;;13.10;99.90;;;;;;5029759;28;20045;-66
2022/05/10 03:54:51;;;;;;;6.20;2.50;;;13.00;99.90;;;;;;5033912;28;20076;-66
2022/05/10 03:57:20;;;;;;;2.30;1.85;;;13.10;99.90;;;;;;5032478;28;20060;-67
2022/05/10 03:59:48;;;;;;;4.45;1.50;;;13.10;99.90;;;;;;5034671;28;20385;-62
2022/05/10 04:02:16;;;;;;;3.35;1.52;;;13.10;99.90;;;;;;5033766;28;20061;-66
2022/05/10 04:04:44;;;;;;;1.50;1.30;;;13.10;99.90;;;;;;5031411;28;20115;-65
2022/05/10 04:07:11;;;;;;;2.38;1.75;;;13.10;99.90;;;;;;5032208;28;20477;-67
2022/05/10 04:09:39;;;;;;;1.73;1.13;;;13.20;99.90;;;;;;5034330;28;20053;-63
2022/05/10 04:12:07;;;;;;;2.10;1.25;;;13.10;99.90;;;;;;5033521;28;20052;-66
2022/05/10 04:14:35;;;;;;;2.45;1.10;;;13.20;99.90;;;;;;5034348;28;20042;-64
2022/05/10 04:17:03;;;;;;;0.73;0.70;;;13.20;99.90;;;;;;5033539;28;20512;-66
2022/05/10 04:19:31;;;;;;;1.83;0.90;;;13.20;99.90;;;;;;5034017;28;20444;-65
2022/05/10 04:21:59;;;;;;;2.65;1.10;;;13.20;99.90;;;;;;5032811;28;20045;-65
2022/05/10 04:24:26;;;;;;;1.55;1.23;;;13.20;99.90;;;;;;5032446;28;20052;-65
2022/05/10 04:27:00;;;;;;;0.98;0.88;;;13.10;99.90;;;;;;5030771;28;20060;-65
2022/05/10 04:29:28;;;;;;;1.25;0.70;;;13.10;99.90;;;;;;5031087;28;20057;-66
2022/05/10 04:31:56;;;;;;;4.47;0.90;;;13.10;99.90;;;;;;5033020;28;20046;-65
2022/05/10 04:34:24;;;;;;;3.33;2.17;;;13.00;99.90;;;;;;5033688;28;20383;-63
2022/05/10 04:36:51;;;;;;;3.47;1.20;;;13.00;99.90;;;;;;5033360;28;20128;-66
2022/05/10 04:39:19;;;;;;;5.35;0.90;;;13.00;99.90;;;;;;5032559;28;20587;-66
2022/05/10 04:41:50;;;;;;;3.63;0.98;;;12.90;99.90;;;;;;5031673;28;20045;-61
2022/05/10 04:44:18;;;;;;;4.13;0.90;;;13.00;99.90;;;;;;5031807;28;20049;-60
2022/05/10 04:46:46;;;;;;;5.50;0.95;;;12.90;99.90;;;;;;5032907;28;20484;-61
2022/05/10 04:49:14;;;;;;;4.57;0.90;;;12.80;99.90;;;;;;5011056;28;20053;-61
2022/05/10 04:51:41;;;;;;;8.93;0.90;;;12.70;99.90;;;;;;5025410;28;20400;-61
2022/05/10 04:54:10;;;;;;;9.32;1.30;;;12.70;99.90;;;;;;5030188;28;20068;-61
2022/05/10 04:56:38;;;;;;;9.77;1.17;;;12.60;99.90;;;;;;5026196;28;20060;-60
2022/05/10 04:59:05;;;;;;;5.95;1.13;;;12.60;99.90;;;;;;5018603;28;20061;-60
2022/05/10 05:01:33;;;;;;;8.40;1.10;;;12.50;99.90;;;;;;5020516;28;20512;-61
2022/05/10 05:04:01;;;;;;;8.50;0.95;;;12.40;99.90;;;;;;5024003;28;20053;-60
2022/05/10 05:06:30;;;;;;;6.35;2.03;;;12.40;99.90;;;;;;5021069;28;20053;-66
2022/05/10 05:08:57;;;;;;;9.15;1.30;;;12.40;99.90;;;;;;5024684;28;20190;-66
2022/05/10 05:11:25;;;;;;;5.38;1.58;;;12.30;99.90;;;;;;5028661;28;20045;-66
2022/05/10 05:13:53;;;;;;;9.00;1.30;;;12.30;99.90;;;;;;5029991;28;20400;-66
2022/05/10 05:16:21;;;;;;;7.05;1.30;;;12.20;99.90;;;;;;5030720;28;20048;-60
2022/05/10 05:18:49;;;;;;;7.13;1.58;;;12.20;99.90;;;;;;5030531;28;20064;-64
2022/05/10 05:21:17;;;;;;;4.60;1.20;;;12.20;99.90;;;;;;5027824;28;20481;-64
2022/05/10 05:23:45;;;;;;;11.32;1.73;;;12.20;99.90;;;;;;5028250;28;20045;-63
2022/05/10 05:26:13;;;;;;;4.53;1.25;;;12.20;99.90;;;;;;5027890;28;20392;-64
2022/05/10 05:28:40;;;;;;;7.32;1.33;;;12.10;99.90;;;;;;5029837;28;20052;-66
2022/05/10 05:31:10;;;;;;;10.05;2.35;;;12.10;99.90;;;;;;5030222;28;20048;-61
2022/05/10 05:33:38;;;;;;;;;;;12.10;99.90;;;;;;5030486;28;20050;-63
2022/05/10 05:36:06;;;;;;;7.88;1.88;;;12.10;99.90;;;;;;5028990;28;20292;-64
2022/05/10 05:38:35;;;;;;;9.95;1.48;;;12.00;99.90;;;;;;5029797;28;20042;-61
2022/05/10 05:41:03;;;;;;;17.23;1.60;;;12.00;99.90;;;;;;5029433;28;20064;-59
2022/05/10 05:43:31;;;;;;;14.50;1.95;;;12.00;99.90;;;;;;5026905;28;20394;-60
2022/05/10 05:45:59;;;;;;;14.18;2.00;;;11.90;99.90;;;;;;5026100;28;20041;-61
2022/05/10 05:48:27;;;;;;;9.95;1.27;;;11.90;99.90;;;;;;5016719;28;20049;-60
2022/05/10 05:50:55;;;;;;;10.88;1.50;;;11.90;99.90;;;;;;5017518;28;20072;-60
2022/05/10 05:53:22;;;;;;;8.95;1.90;;;11.90;99.90;;;;;;5029884;28;20049;-59
2022/05/10 05:55:50;;;;;;;8.80;1.42;;;11.90;99.90;;;;;;5029057;28;20622;-60
2022/05/10 05:58:18;;;;;;;10.82;1.92;;;11.90;99.90;;;;;;5028550;28;20500;-62
2022/05/10 06:00:45;;;;;;;8.13;1.55;;;11.90;99.90;;;;;;5026467;28;20045;-65
2022/05/10 06:03:16;;;;;;;15.00;1.95;;;11.90;99.90;;;;;;5025976;28;20065;-65
2022/05/10 06:05:49;;;;;;;9.88;1.58;;;12.00;99.90;;;;;;5022614;28;20053;-62
2022/05/10 06:08:18;;;;;;;6.97;1.15;;;12.00;99.90;;;;;;5031173;28;20057;-61
2022/05/10 06:10:50;;;;;;;16.23;2.22;;;12.00;99.90;;;;;;5026561;28;20052;-61
2022/05/10 06:13:21;;;;;;;9.40;1.73;;;12.10;99.90;;;;;;5025998;28;20044;-60
2022/05/10 06:15:49;;;;;;;13.38;1.52;;;12.20;99.90;;;;;;5024857;28;20049;-61
2022/05/10 06:18:17;;;;;;;11.27;1.42;;;12.20;99.90;;;;;;5025606;28;20500;-60
2022/05/10 06:20:44;;;;;;;12.68;2.22;;;12.20;99.90;;;;;;5028805;28;20041;-66
2022/05/10 06:23:12;;;;;;;10.23;1.40;;;12.30;99.90;;;;;;5030121;28;20053;-63
2022/05/10 06:25:40;;;;;;;8.55;1.92;;;12.40;99.90;;;;;;5028988;28;20041;-63
2022/05/10 06:28:08;;;;;;;12.60;2.00;;;12.30;99.90;;;;;;5024586;28;20060;-65
2022/05/10 06:30:35;;;;;;;16.75;1.65;;;12.40;99.90;;;;;;5025678;28;20396;-63
2022/05/10 06:33:03;;;;;;;12.13;2.22;;;12.40;99.90;;;;;;5029385;28;20056;-61
2022/05/10 06:35:31;;;;;;;13.63;1.50;;;12.50;99.90;;;;;;5028111;28;20042;-61
2022/05/10 06:38:19;;;;;;;7.85;1.92;;;12.50;99.90;;;;;;5029262;28;20049;-61
2022/05/10 06:40:49;;;;;;;11.07;1.58;;;12.50;99.90;;;;;;5029148;28;20660;-61
2022/05/10 06:43:17;;;;;;;2.88;1.13;;;12.60;99.90;;;;;;5029300;28;20045;-62
2022/05/10 06:45:46;;;;;;;17.40;2.05;;;12.60;99.90;;;;;;5028536;28;20046;-60
2022/05/10 06:48:15;;;;;;;13.70;2.35;;;12.70;99.90;;;;;;5024215;28;20060;-60
2022/05/10 06:50:44;;;;;;;14.05;1.83;;;12.70;99.90;;;;;;5024817;28;20485;-61
2022/05/10 06:53:12;;;;;;;16.90;1.77;;;12.70;99.90;;;;;;5023149;28;20497;-62
2022/05/10 06:55:40;;;;;;;10.90;2.33;;;12.80;99.90;;;;;;5022055;28;20057;-60
2022/05/10 06:58:09;;;;;;;18.92;2.05;;;12.80;99.90;;;;;;5018028;28;20049;-68
2022/05/10 07:00:41;;;;;;;10.15;2.03;;;12.90;99.90;;;;;;5030929;28;20052;-66
2022/05/10 07:03:12;;;;;;;22.02;2.25;;;12.90;99.90;;;;;;5017447;28;20481;-66
2022/05/10 07:05:44;;;;;;;21.25;2.38;;;13.00;99.90;;;;;;5019830;28;20041;-66
2022/05/10 07:08:12;;;;;;;10.68;1.95;;;13.00;99.90;;;;;;5027895;28;20061;-62
2022/05/10 07:10:40;;;;;;;13.90;1.80;;;13.10;99.90;;;;;;5013095;28;20049;-67
2022/05/10 07:13:08;;;;;;;12.13;1.98;;;13.10;99.90;;;;;;5020671;28;20049;-64
2022/05/10 07:15:36;;;;;;;10.65;1.45;;;13.10;99.90;;;;;;5018337;28;20390;-66
2022/05/10 07:18:04;;;;;;;15.95;2.38;;;13.10;99.90;;;;;;5021687;28;20048;-65
2022/05/10 07:20:31;;;;;;;14.23;3.50;;;13.20;99.90;;;;;;5016583;28;20057;-66
2022/05/10 07:22:59;;;;;;;13.40;1.75;;;13.20;99.90;;;;;;5011633;28;20049;-66
2022/05/10 07:25:28;;;;;;;17.92;2.10;;;13.20;99.90;;;;;;5010072;28;20612;-67
2022/05/10 07:27:57;;;;;;;12.60;1.77;;;13.30;99.90;;;;;;5011094;28;20100;-65
2022/05/10 07:30:27;;;;;;;11.07;2.00;;;13.30;99.90;;;;;;5026128;28;20061;-66
2022/05/10 07:32:55;;;;;;;12.35;1.95;;;13.30;99.90;;;;;;5032590;28;20051;-66
2022/05/10 07:38:12;;;;;;;17.15;2.10;;;13.40;99.90;;;;;;5030944;28;20054;-66
2022/05/10 07:40:40;;;;;;;11.15;1.40;;;13.40;99.90;;;;;;5035156;28;20053;-66
2022/05/10 07:43:13;;;;;;;11.63;1.67;;;13.40;99.90;;;;;;5016780;28;20474;-67
2022/05/10 07:45:43;;;;;;;12.45;2.30;;;13.40;99.90;;;;;;5015199;28;20049;-65
2022/05/10 07:48:11;;;;;;;15.95;3.20;;;13.40;99.90;;;;;;5034997;28;20045;-65
2022/05/10 07:50:39;;;;;;;12.85;2.00;;;13.40;99.90;;;;;;5032163;28;20049;-65
2022/05/10 07:53:14;;;;;;;13.60;2.33;;;13.40;99.90;;;;;;5029744;28;20379;-66
2022/05/10 07:55:41;;;;;;;13.93;2.20;;;13.40;99.90;;;;;;5028902;28;20053;-66
2022/05/10 07:58:09;;;;;;;13.45;2.80;;;13.50;99.90;;;;;;5025986;28;20038;-64
2022/05/10 08:00:39;;;;;;;15.57;2.03;;;13.50;99.90;;;;;;5033971;28;20050;-65
2022/05/10 08:03:27;;;;;;;15.00;2.00;;;13.50;99.90;;;;;;5029851;28;20048;-67
2022/05/10 08:05:56;;;;;;;10.18;2.25;;;13.50;99.90;;;;;;5027853;28;20109;-65
2022/05/10 08:08:24;;;;;;;11.60;2.10;;;13.70;99.90;;;;;;5027136;28;20046;-65
2022/05/10 08:11:06;;;;;;;10.32;1.52;;;13.80;99.90;;;;;;5013101;28;20050;-65
2022/05/10 08:13:34;;;;;;;11.27;1.95;;;13.80;99.90;;;;;;5021033;28;20050;-65
2022/05/10 08:16:02;;;;;;;8.68;1.52;;;13.90;99.90;;;;;;5028142;28;20041;-64
2022/05/10 08:18:30;;;;;;;14.70;1.77;;;13.90;99.90;;;;;;5031522;28;20061;-61
2022/05/10 08:20:59;;;;;;;17.55;1.90;;;13.90;99.90;;;;;;5032668;28;20494;-61
2022/05/10 08:23:29;;;;;;;17.70;2.70;;;13.90;99.90;;;;;;5029515;28;20049;-60
2022/05/10 08:25:58;;;;;;;;;;;14.00;99.90;;;;;;5013332;28;20046;-61
2022/05/10 08:28:28;;;;;;;4.10;1.13;;;14.00;99.90;;;;;;5016236;28;19921;-60
2022/05/10 08:30:56;;;;;;;12.60;1.75;;;14.00;99.90;;;;;;5012703;28;20046;-60
2022/05/10 08:33:28;;;;;;;12.27;1.58;;;14.00;99.90;;;;;;5016460;28;20063;-61
2022/05/10 08:35:57;;;;;;;6.97;1.40;;;14.00;99.90;;;;;;5029630;28;20045;-60
2022/05/10 08:38:27;;;;;;;12.25;1.60;;;14.20;99.90;;;;;;5031276;28;20049;-61
2022/05/10 08:41:13;;;;;;;12.67;1.47;;;14.30;99.90;;;;;;5032233;28;20419;-61
2022/05/10 08:43:50;;;;;;;19.98;2.80;;;14.40;99.90;;;;;;5029948;28;20295;-60
2022/05/10 08:46:24;;;;;;;16.17;1.55;;;14.40;99.90;;;;;;5033312;28;20056;-61
2022/05/10 08:49:00;;;;;;;13.10;1.70;;;14.40;99.90;;;;;;5029027;28;20045;-60
2022/05/10 08:51:31;;;;;;;17.55;2.63;;;14.40;99.90;;;;;;5030656;28;20041;-63
2022/05/10 08:53:59;;;;;;;14.43;2.38;;;14.40;99.90;;;;;;5032873;28;20049;-61
2022/05/10 08:56:31;;;;;;;14.25;2.08;;;14.50;99.90;;;;;;5024381;28;20038;-64
2022/05/10 08:59:07;;;;;;;9.80;1.63;;;14.60;99.90;;;;;;5023351;28;20060;-66
2022/05/10 09:01:53;;;;;;;17.33;2.05;;;14.60;99.90;;;;;;5033589;28;20619;-66
2022/05/10 09:04:59;;;;;;;12.60;2.20;;;14.50;99.90;;;;;;5031429;28;20050;-65
2022/05/10 09:07:46;;;;;;;11.43;1.77;;;14.40;99.90;;;;;;5030711;28;20461;-64
2022/05/10 09:10:22;;;;;;;12.68;2.03;;;14.40;99.90;;;;;;5029270;28;20046;-61
2022/05/10 09:13:13;;;;;;;15.25;2.63;;;14.50;99.90;;;;;;5030999;28;20046;-62
2022/05/10 09:15:45;;;;;;;10.48;1.90;;;14.70;99.90;;;;;;5029971;28;20049;-65
2022/05/10 09:18:26;;;;;;;11.25;2.22;;;14.80;99.90;;;;;;5021331;28;20346;-66
2022/05/10 09:21:23;;;;;;;10.73;1.70;;;14.80;99.90;;;;;;5031035;28;20045;-67
2022/05/10 09:24:29;;;;;;;12.10;1.80;;;14.80;99.90;;;;;;5019924;28;20053;-67
2022/05/10 09:27:05;;;;;;;14.57;2.47;;;14.80;99.90;;;;;;5017366;28;20034;-66
2022/05/10 09:29:48;;;;;;;17.15;1.83;;;14.80;99.90;;;;;;5017887;28;20061;-66
2022/05/10 09:35:24;;;;;;;12.32;1.95;;;14.90;99.90;;;;;;5031965;28;20049;-61
2022/05/10 09:37:53;;;;;;;16.23;1.90;;;15.10;99.90;;;;;;5026286;28;20045;-65
2022/05/10 09:40:23;;;;;;;9.13;1.25;;;15.10;99.90;;;;;;5025935;28;20065;-62
2022/05/10 09:42:53;;;;;;;14.85;2.33;;;15.20;99.90;;;;;;5029090;28;20053;-64
2022/05/10 09:45:27;;;;;;;10.90;1.60;;;15.10;99.90;;;;;;5030010;28;20045;-65
2022/05/10 09:48:17;;;;;;;14.40;2.10;;;15.10;99.90;;;;;;5024986;28;20045;-64
2022/05/10 09:50:50;;;;;;;9.60;1.67;;;15.30;99.90;;;;;;5030581;28;20400;-66
2022/05/10 09:53:23;;;;;;;17.10;1.67;;;15.40;99.90;;;;;;5028523;28;20037;-66
2022/05/10 09:55:57;;;;;;;10.27;1.67;;;15.50;99.90;;;;;;5013914;28;20061;-66
2022/05/10 09:58:37;;;;;;;11.00;2.03;;;15.50;99.90;;;;;;5029895;28;20044;-66
2022/05/10 10:01:10;;;;;;;12.27;1.52;;;15.50;99.90;;;;;;5024860;28;20050;-63
2022/05/10 10:03:41;;;;;;;6.63;1.00;;;15.60;99.90;;;;;;5024706;28;20148;-66
2022/05/10 10:06:17;;;;;;;5.43;0.85;;;15.60;99.90;;;;;;5028604;28;20053;-65
2022/05/10 10:08:57;;;;;;;7.25;1.15;;;15.60;99.90;;;;;;5028145;28;20053;-65
2022/05/10 10:11:25;;;;;;;8.10;1.23;;;15.70;99.90;;;;;;5025840;28;20065;-64
2022/05/10 10:13:59;;;;;;;7.00;1.38;;;15.90;99.90;;;;;;5024278;28;20056;-65
2022/05/10 10:16:57;;;;;;;7.88;1.90;;;15.80;99.90;;;;;;5029191;28;20050;-65
2022/05/10 10:19:35;;;;;;;7.03;1.85;;;15.70;99.90;;;;;;5023646;28;20057;-61
2022/05/10 10:22:06;;;;;;;21.50;2.50;;;15.70;99.90;;;;;;5025247;28;20410;-60
2022/05/10 10:25:05;;;;;;;10.20;1.67;;;15.80;99.90;;;;;;5025397;28;20041;-61
2022/05/10 10:27:42;;;;;;;12.27;2.13;;;15.80;99.90;;;;;;5031057;28;20053;-60
2022/05/10 10:30:36;;;;;;;10.35;1.80;;;15.90;99.90;;;;;;5028167;28;20064;-60
2022/05/10 10:33:15;;;;;;;9.25;1.70;;;15.90;99.90;;;;;;5029273;28;20046;-60
2022/05/10 10:35:50;;;;;;;13.38;2.20;;;16.00;99.90;;;;;;5030052;28;20060;-60
2022/05/10 10:38:24;;;;;;;6.18;1.30;;;16.00;99.90;;;;;;5027571;28;20045;-60
2022/05/10 10:41:00;;;;;;;6.20;1.30;;;16.00;99.90;;;;;;5032314;28;20047;-67
2022/05/10 10:43:39;;;;;;;10.82;1.40;;;16.10;99.90;;;;;;5028396;28;20378;-67
2022/05/10 10:46:18;;;;;;;9.63;1.30;;;16.20;99.90;;;;;;5027391;28;20056;-62
2022/05/10 10:48:56;;;;;;;10.18;1.15;;;16.30;99.90;;;;;;5024130;28;20046;-67
2022/05/10 10:51:29;;;;;;;12.82;1.98;;;16.40;99.90;;;;;;5010034;28;20049;-61
2022/05/10 10:53:59;;;;;;;6.15;1.02;;;16.40;99.90;;;;;;5028183;28;20504;-62
2022/05/10 10:56:26;;;;;;;;;;;16.40;99.90;;;;;;5029270;28;20046;-61
2022/05/10 10:59:15;;;;;;;15.38;1.35;;;16.50;99.90;;;;;;5024839;28;19925;-66
2022/05/10 11:02:12;;;;;;;9.27;1.38;;;16.60;99.90;;;;;;5010132;28;20041;-66
2022/05/10 11:05:00;;;;;;;8.45;1.20;;;16.70;99.90;;;;;;5029717;28;20045;-65
2022/05/10 11:07:54;;;;;;;7.78;1.42;;;16.80;99.90;;;;;;5026737;28;20060;-61
2022/05/10 11:10:41;;;;;;;13.27;1.15;;;17.00;99.90;;;;;;5016693;28;20045;-62
2022/05/10 11:13:41;;;;;;;9.93;1.60;;;17.10;99.90;;;;;;5027192;28;20037;-61
2022/05/10 11:16:20;;;;;;;8.55;1.67;;;17.20;99.90;;;;;;5027401;28;20041;-60
2022/05/10 11:19:23;;;;;;;8.27;1.20;;;17.20;99.90;;;;;;5021924;28;20053;-60
2022/05/10 11:22:31;;;;;;;5.85;1.00;;;17.30;99.90;;;;;;5017008;28;20086;-61
2022/05/10 11:25:17;;;;;;;6.80;1.30;;;17.40;99.90;;;;;;5053128;28;20413;-61
2022/05/10 11:28:06;;;;;;;9.07;1.20;;;17.40;99.90;;;;;;5030394;28;20037;-60
2022/05/10 11:31:00;;;;;;;7.32;1.10;;;17.40;99.90;;;;;;5029425;28;20045;-60
2022/05/10 11:33:51;;;;;;;11.35;1.42;;;17.60;99.90;;;;;;5021361;28;20053;-60
2022/05/10 11:36:42;;;;;;;4.45;0.80;;;17.90;99.90;;;;;;5017674;28;20056;-61
2022/05/10 11:39:24;;;;;;;7.80;1.02;;;18.20;99.90;;;;;;5028173;28;20068;-61
2022/05/10 11:42:32;;;;;;;13.80;1.70;;;18.50;99.70;;;;;;5027449;28;20045;-60
2022/05/10 11:45:36;;;;;;;4.97;0.98;;;18.70;98.40;;;;;;5030148;28;20048;-60
2022/05/10 11:48:25;;;;;;;6.60;1.08;;;18.70;96.80;;;;;;5028938;28;20152;-60
2022/05/10 11:54:27;;;;;;;5.85;1.30;;;18.90;95.30;;;;;;5018699;28;20048;-62
2022/05/10 11:56:55;;;;;;;6.03;1.10;;;19.20;95.20;;;;;;5024799;28;20065;-64
2022/05/10 11:59:32;;;;;;;6.38;1.77;;;19.50;95.10;;;;;;5028217;28;20065;-62
2022/05/10 12:02:02;;;;;;;7.88;0.90;;;19.80;91.80;;;;;;5028546;28;20046;-60
2022/05/10 12:04:35;;;;;;;6.80;1.10;;;19.80;90.60;;;;;;5024297;28;20046;-61
2022/05/10 12:07:27;;;;;;;3.08;0.80;;;19.70;90.30;;;;;;5009320;28;20049;-59
2022/05/10 12:10:04;;;;;;;7.53;1.10;;;19.70;91.30;;;;;;5022735;28;20049;-62
2022/05/10 12:12:32;;;;;;;8.27;1.58;;;19.80;91.70;;;;;;5027048;28;20057;-60
2022/05/10 12:24:02;;;;;;;8.45;1.48;;;19.20;90.20;;;;;;5021755;28;20061;-59
2022/05/10 12:26:37;;;;;;;6.40;1.13;;;19.10;90.80;;;;;;5012770;28;20050;-59
2022/05/10 12:29:06;;;;;;;9.10;1.48;;;19.00;91.10;;;;;;5027287;28;20054;-59
2022/05/10 12:31:33;;;;;;;9.43;1.30;;;19.00;91.50;;;;;;5033441;28;20045;-66
2022/05/10 12:34:06;;;;;;;4.35;0.90;;;19.10;91.20;;;;;;5021303;28;20068;-66
2022/05/10 12:36:39;;;;;;;9.95;2.20;;;19.20;90.80;;;;;;5028596;28;20397;-66
2022/05/10 12:39:23;;;;;;;8.90;1.52;;;19.20;89.90;;;;;;5030124;28;20045;-66
2022/05/10 12:42:19;;;;;;;3.28;1.13;;;19.20;88.00;;;;;;5028966;28;20053;-65
2022/05/10 12:45:22;;;;;;;8.63;0.85;;;19.20;86.60;;;;;;5029601;28;20437;-66
2022/05/10 12:47:53;;;;;;;8.68;1.10;;;19.20;86.50;;;;;;5031884;28;20065;-67
2022/05/10 12:50:33;;;;;;;4.82;1.08;;;19.40;85.20;;;;;;5033729;28;20044;-62
2022/05/10 12:53:46;;;;;;;4.45;0.88;;;19.30;86.00;;;;;;5028329;28;20057;-60
2022/05/10 12:56:21;;;;;;;;;;;19.80;88.10;;;;;;5029214;28;20041;-61
2022/05/10 12:59:16;;;;;;;4.00;1.20;;;20.10;85.40;;;;;;5029846;28;19921;-60
2022/05/10 13:01:45;;;;;;;8.23;1.13;;;20.70;83.80;;;;;;5030453;28;20048;-62
2022/05/10 13:04:16;;;;;;;4.40;0.90;;;21.20;83.50;;;;;;5046624;28;20038;-60
2022/05/10 13:06:53;;;;;;;5.78;1.33;;;21.40;79.40;;;;;;5030840;28;20306;-60
2022/05/10 13:10:06;;;;;;;8.20;1.27;;;21.50;77.90;;;;;;5027645;28;20041;-61
2022/05/10 13:12:49;;;;;;;9.18;1.00;;;21.90;75.50;;;;;;5009646;28;20057;-60
2022/05/10 13:15:22;;;;;;;4.43;0.70;;;22.30;72.20;;;;;;5008927;28;20050;-60
2022/05/10 13:17:58;;;;;;;4.90;0.90;;;22.40;69.80;;;;;;5015580;28;20045;-60
2022/05/10 13:20:29;;;;;;;5.55;1.05;;;22.20;69.10;;;;;;5010480;28;20045;-60
2022/05/10 13:23:01;;;;;;;3.80;0.50;;;22.10;70.70;;;;;;5029475;28;20045;-60
2022/05/10 13:25:35;;;;;;;3.92;1.17;;;22.00;68.30;;;;;;5011426;28;20042;-60
2022/05/10 13:28:12;;;;;;;5.75;1.35;;;21.40;69.50;;;;;;5018320;28;20037;-62
2022/05/10 13:30:44;;;;;;;4.82;1.60;;;21.00;72.40;;;;;;5020561;28;20053;-59
2022/05/10 13:33:21;;;;;;;6.22;1.13;;;20.90;74.90;;;;;;5011890;28;20056;-61
2022/05/10 13:35:52;;;;;;;7.22;1.30;;;21.30;71.70;;;;;;5012864;28;20042;-61
2022/05/10 13:38:29;;;;;;;5.82;1.08;;;21.50;74.10;;;;;;5025209;28;20049;-60
2022/05/10 13:41:00;;;;;;;3.97;1.00;;;21.80;72.40;;;;;;5027400;28;20590;-60
2022/05/10 13:43:44;;;;;;;4.15;0.82;;;22.20;71.10;;;;;;5022695;28;20061;-59